createdAt,value
2019-03-24T00:00:13.546Z,90.20
2019-03-24T00:02:41.655Z,90.30
2019-03-24T00:05:09.783Z,90.30
2019-03-24T00:07:39.175Z,90.30
2019-03-24T00:10:10.857Z,90.40
2019-03-24T00:12:40.140Z,90.50
2019-03-24T00:15:08.605Z,90.50
2019-03-24T00:17:37.495Z,90.50
2019-03-24T00:20:07.090Z,90.60
2019-03-24T00:22:36.930Z,90.60
2019-03-24T00:25:06.687Z,90.70
2019-03-24T00:27:34.979Z,90.70
2019-03-24T00:30:03.317Z,90.80
2019-03-24T00:32:34.296Z,90.80
2019-03-24T00:35:02.278Z,90.80
2019-03-24T00:37:31.810Z,90.90
2019-03-24T00:39:59.648Z,91.00
2019-03-24T00:42:27.836Z,91.10
2019-03-24T00:44:55.700Z,91.10
2019-03-24T00:47:23.587Z,91.20
2019-03-24T00:49:52.962Z,91.30
2019-03-24T00:52:21.249Z,91.30
2019-03-24T00:54:49.099Z,91.40
2019-03-24T00:57:17.248Z,91.50
2019-03-24T00:59:45.196Z,91.60
2019-03-24T01:02:13.028Z,91.60
2019-03-24T01:04:41.038Z,91.60
2019-03-24T01:07:09.570Z,91.60
2019-03-24T01:09:37.583Z,91.60
2019-03-24T01:12:05.731Z,91.70
2019-03-24T01:14:35.217Z,92.00
2019-03-24T01:17:03.465Z,91.60
2019-03-24T01:19:31.264Z,91.60
2019-03-24T01:21:59.121Z,91.60
2019-03-24T01:24:27.043Z,91.70
2019-03-24T01:26:55.035Z,91.60
2019-03-24T01:29:23.076Z,91.70
2019-03-24T01:31:52.503Z,91.70
2019-03-24T01:34:20.349Z,91.70
2019-03-24T01:36:48.569Z,91.80
2019-03-24T01:39:18.065Z,91.90
2019-03-24T01:41:46.067Z,92.00
2019-03-24T01:44:16.431Z,92.10
2019-03-24T01:46:44.452Z,92.50
2019-03-24T01:49:12.508Z,92.10
2019-03-24T01:51:40.568Z,92.10
2019-03-24T01:54:08.512Z,92.10
2019-03-24T01:56:38.195Z,92.10
2019-03-24T01:59:06.732Z,92.10
2019-03-24T02:01:34.642Z,92.20
2019-03-24T02:04:02.472Z,92.30
2019-03-24T02:06:30.606Z,92.40
2019-03-24T02:08:58.476Z,92.40
2019-03-24T02:11:27.992Z,92.40
2019-03-24T02:13:59.160Z,92.40
2019-03-24T02:16:27.094Z,92.50
2019-03-24T02:18:54.919Z,92.50
2019-03-24T02:21:22.913Z,92.60
2019-03-24T02:23:50.790Z,92.60
2019-03-24T02:26:18.835Z,92.50
2019-03-24T02:28:46.736Z,92.60
2019-03-24T02:31:15.276Z,92.60
2019-03-24T02:33:43.305Z,92.70
2019-03-24T02:36:13.899Z,92.80
2019-03-24T02:38:43.514Z,92.90
2019-03-24T02:41:13.365Z,92.90
2019-03-24T02:43:43.791Z,92.80
2019-03-24T02:46:23.422Z,92.70
2019-03-24T02:48:45.739Z,92.70
2019-03-24T02:51:13.822Z,92.60
2019-03-24T02:53:41.868Z,92.40
2019-03-24T02:56:09.779Z,92.10
2019-03-24T02:58:38.670Z,91.90
2019-03-24T03:01:06.483Z,91.80
2019-03-24T03:03:35.668Z,91.70
2019-03-24T03:06:03.510Z,91.60
2019-03-24T03:08:31.853Z,91.60
2019-03-24T03:11:02.860Z,91.60
2019-03-24T03:13:31.239Z,91.70
2019-03-24T03:15:59.042Z,91.70
2019-03-24T03:18:27.044Z,91.70
2019-03-24T03:20:54.845Z,91.80
2019-03-24T03:23:23.953Z,91.80
2019-03-24T03:25:51.765Z,91.90
2019-03-24T03:28:19.662Z,91.90
2019-03-24T03:30:49.219Z,92.00
2019-03-24T03:33:17.883Z,92.00
2019-03-24T03:35:47.268Z,92.10
2019-03-24T03:38:15.177Z,92.20
2019-03-24T03:40:43.558Z,92.30
2019-03-24T03:43:12.813Z,92.30
2019-03-24T03:45:40.895Z,92.50
2019-03-24T03:48:10.098Z,92.50
2019-03-24T03:50:42.011Z,92.70
2019-03-24T03:53:11.001Z,92.70
2019-03-24T03:55:39.224Z,92.80
2019-03-24T03:58:07.253Z,92.80
2019-03-24T04:00:35.878Z,92.90
2019-03-24T04:03:04.478Z,92.90
2019-03-24T04:05:32.300Z,93.00
2019-03-24T04:08:00.984Z,93.20
2019-03-24T04:10:29.491Z,93.20
2019-03-24T04:12:57.382Z,93.20
2019-03-24T04:15:26.742Z,93.20
2019-03-24T04:17:56.333Z,93.30
2019-03-24T04:20:24.200Z,93.40
2019-03-24T04:22:53.719Z,93.40
2019-03-24T04:25:21.613Z,93.50
2019-03-24T04:27:53.724Z,93.50
2019-03-24T04:30:21.052Z,93.50
2019-03-24T04:32:52.166Z,93.60
2019-03-24T04:35:20.064Z,93.70
2019-03-24T04:37:47.945Z,93.70
2019-03-24T04:40:16.074Z,93.80
2019-03-24T04:42:44.542Z,93.80
2019-03-24T04:45:13.726Z,93.80
2019-03-24T04:47:45.861Z,93.90
2019-03-24T04:50:15.662Z,93.80
2019-03-24T04:52:44.178Z,93.90
2019-03-24T04:55:12.041Z,93.90
2019-03-24T04:57:42.570Z,93.90
2019-03-24T05:00:10.405Z,93.90
2019-03-24T05:02:42.192Z,93.90
2019-03-24T05:05:10.444Z,93.80
2019-03-24T05:07:38.491Z,93.70
2019-03-24T05:10:08.041Z,93.70
2019-03-24T05:12:39.681Z,93.60
2019-03-24T05:15:09.533Z,93.60
2019-03-24T05:17:38.666Z,93.40
2019-03-24T05:20:08.147Z,93.30
2019-03-24T05:22:38.197Z,93.10
2019-03-24T05:25:08.384Z,92.90
2019-03-24T05:27:37.204Z,92.70
2019-03-24T05:30:06.519Z,92.40
2019-03-24T05:32:35.488Z,92.20
2019-03-24T05:35:05.735Z,92.10
2019-03-24T05:37:35.600Z,91.90
2019-03-24T05:40:04.118Z,91.70
2019-03-24T05:42:32.071Z,91.60
2019-03-24T05:44:59.925Z,91.30
2019-03-24T05:47:37.122Z,91.00
2019-03-24T05:50:01.319Z,90.80
2019-03-24T05:52:29.244Z,90.60
2019-03-24T05:54:57.179Z,90.40
2019-03-24T05:57:24.978Z,90.40
2019-03-24T05:59:52.930Z,90.30
2019-03-24T06:02:20.746Z,90.30
2019-03-24T06:04:48.624Z,90.20
2019-03-24T06:07:16.459Z,90.20
2019-03-24T06:09:44.295Z,90.20
2019-03-24T06:12:13.277Z,90.10
2019-03-24T06:14:41.129Z,90.00
2019-03-24T06:17:11.035Z,89.70
2019-03-24T06:19:38.912Z,89.50
2019-03-24T06:22:06.855Z,89.30
2019-03-24T06:24:36.371Z,89.10
2019-03-24T06:27:04.197Z,88.80
2019-03-24T06:29:32.106Z,88.50
2019-03-24T06:31:59.926Z,88.30
2019-03-24T06:34:27.962Z,88.00
2019-03-24T06:36:58.859Z,87.60
2019-03-24T06:39:26.805Z,87.10
2019-03-24T06:42:00.923Z,86.90
2019-03-24T06:44:26.140Z,86.10
2019-03-24T06:46:54.034Z,85.90
2019-03-24T06:49:21.948Z,85.70
2019-03-24T06:51:49.813Z,85.60
2019-03-24T06:54:17.640Z,85.40
2019-03-24T06:56:47.148Z,85.30
2019-03-24T06:59:15.233Z,85.20
2019-03-24T07:01:43.180Z,85.00
2019-03-24T07:04:11.133Z,84.70
2019-03-24T07:06:39.031Z,84.00
2019-03-24T07:09:06.936Z,83.80
2019-03-24T07:11:35.386Z,83.30
2019-03-24T07:14:03.296Z,82.00
2019-03-24T07:16:33.137Z,81.10
2019-03-24T07:19:02.614Z,80.20
2019-03-24T07:21:30.536Z,77.60
2019-03-24T07:24:00.496Z,75.80
2019-03-24T07:26:29.692Z,73.70
2019-03-24T07:28:57.621Z,71.00
2019-03-24T07:31:25.536Z,70.90
2019-03-24T07:33:53.486Z,70.10
2019-03-24T07:36:21.574Z,70.30
2019-03-24T07:38:49.461Z,69.40
2019-03-24T07:41:17.454Z,69.60
2019-03-24T07:43:45.454Z,69.70
2019-03-24T07:46:13.339Z,69.80
2019-03-24T07:48:41.169Z,68.90
2019-03-24T07:51:09.075Z,69.10
2019-03-24T07:53:36.975Z,66.80
2019-03-24T07:56:04.836Z,65.70
2019-03-24T07:58:32.675Z,65.30
2019-03-24T08:01:01.465Z,61.70
2019-03-24T08:03:29.952Z,57.80
2019-03-24T08:05:58.467Z,55.90
2019-03-24T08:08:26.956Z,55.50
2019-03-24T08:10:55.486Z,54.20
2019-03-24T08:13:24.048Z,52.50
2019-03-24T08:15:52.586Z,51.00
2019-03-24T08:18:29.541Z,51.40
2019-03-24T08:20:51.435Z,49.80
2019-03-24T08:23:19.965Z,49.10
2019-03-24T08:25:48.744Z,49.10
2019-03-24T08:28:17.510Z,47.30
2019-03-24T08:30:46.408Z,47.10
2019-03-24T08:33:15.064Z,47.10
2019-03-24T08:35:43.810Z,46.80
2019-03-24T08:38:12.504Z,47.40
2019-03-24T08:40:41.385Z,45.20
2019-03-24T08:43:10.344Z,44.00
2019-03-24T08:45:38.962Z,42.50
2019-03-24T08:48:07.524Z,41.80
2019-03-24T08:50:35.996Z,41.20
2019-03-24T08:53:04.607Z,40.40
2019-03-24T08:55:33.127Z,39.50
2019-03-24T08:58:01.818Z,38.30
2019-03-24T09:00:31.120Z,37.10
2019-03-24T09:03:00.894Z,36.10
2019-03-24T09:05:29.458Z,37.80
2019-03-24T09:07:58.005Z,38.10
2019-03-24T09:10:26.515Z,38.60
2019-03-24T09:12:55.042Z,38.30
2019-03-24T09:15:26.496Z,39.90
2019-03-24T09:17:55.120Z,40.50
2019-03-24T09:20:25.448Z,41.30
2019-03-24T09:22:55.372Z,41.90
2019-03-24T09:25:23.992Z,42.40
2019-03-24T09:27:54.358Z,42.80
2019-03-24T09:30:30.442Z,43.00
2019-03-24T09:33:02.445Z,43.40
2019-03-24T09:35:31.087Z,44.10
2019-03-24T09:37:59.596Z,42.20
2019-03-24T09:40:33.384Z,38.40
2019-03-24T09:43:02.082Z,31.70
2019-03-24T09:45:31.228Z,28.00
2019-03-24T09:48:00.756Z,25.10
2019-03-24T09:50:29.278Z,23.10
2019-03-24T09:52:57.837Z,20.50
2019-03-24T09:55:26.346Z,18.20
2019-03-24T09:57:54.874Z,17.20
2019-03-24T10:00:23.529Z,16.30
2019-03-24T10:02:54.750Z,14.50
2019-03-24T10:05:23.233Z,14.40
2019-03-24T10:07:53.247Z,13.90
2019-03-24T10:10:23.502Z,13.30
2019-03-24T10:12:52.126Z,12.90
2019-03-24T10:15:20.775Z,12.30
2019-03-24T10:17:49.521Z,12.60
2019-03-24T10:20:19.606Z,12.60
2019-03-24T10:22:51.357Z,12.00
2019-03-24T10:25:19.896Z,11.30
2019-03-24T10:27:51.770Z,11.00
2019-03-24T10:30:20.481Z,11.40
2019-03-24T10:32:50.705Z,11.20
2019-03-24T10:35:21.558Z,11.60
2019-03-24T10:37:50.268Z,11.80
2019-03-24T10:40:28.073Z,11.70
2019-03-24T10:42:49.913Z,11.80
2019-03-24T10:45:18.750Z,11.40
2019-03-24T10:47:51.374Z,11.10
2019-03-24T10:50:21.969Z,10.60
2019-03-24T10:52:53.200Z,11.10
2019-03-24T10:55:22.228Z,11.40
2019-03-24T10:57:52.656Z,11.20
2019-03-24T11:00:38.619Z,10.90
2019-03-24T11:03:07.801Z,11.20
2019-03-24T11:05:38.441Z,11.60
2019-03-24T11:08:07.428Z,11.30
2019-03-24T11:10:36.027Z,11.40
2019-03-24T11:13:07.367Z,11.20
2019-03-24T11:15:39.663Z,11.60
2019-03-24T11:18:11.282Z,12.90
2019-03-24T11:20:39.899Z,13.10
2019-03-24T11:23:08.808Z,13.40
2019-03-24T11:25:39.289Z,14.20
2019-03-24T11:28:10.421Z,14.30
2019-03-24T11:30:38.992Z,15.20
2019-03-24T11:33:07.831Z,15.90
2019-03-24T11:35:36.501Z,17.60
2019-03-24T11:38:05.299Z,19.40
2019-03-24T11:40:33.487Z,20.30
2019-03-24T11:43:01.629Z,22.90
2019-03-24T11:45:30.101Z,24.30
2019-03-24T11:48:00.318Z,25.30
2019-03-24T11:50:28.863Z,25.80
2019-03-24T11:52:58.492Z,27.20
2019-03-24T11:55:26.756Z,28.20
2019-03-24T11:58:05.316Z,28.40
2019-03-24T12:00:34.437Z,28.70
2019-03-24T12:03:02.475Z,29.80
2019-03-24T12:05:32.039Z,30.10
2019-03-24T12:07:59.911Z,30.90
2019-03-24T12:10:27.937Z,29.70
2019-03-24T12:12:55.855Z,29.60
2019-03-24T12:15:23.903Z,29.40
2019-03-24T12:17:52.035Z,29.00
2019-03-24T12:20:20.611Z,29.20
2019-03-24T12:22:51.578Z,27.90
2019-03-24T12:25:19.592Z,28.70
2019-03-24T12:27:47.632Z,29.80
2019-03-24T12:30:15.798Z,29.30
2019-03-24T12:32:44.018Z,28.40
2019-03-24T12:35:12.327Z,28.40
2019-03-24T12:37:40.207Z,29.00
2019-03-24T12:40:08.555Z,29.90
2019-03-24T12:42:36.434Z,29.30
2019-03-24T12:45:08.851Z,28.70
2019-03-24T12:47:36.693Z,29.00
2019-03-24T12:50:09.591Z,29.70
2019-03-24T12:52:37.897Z,31.10
2019-03-24T12:55:06.482Z,32.30
2019-03-24T12:57:34.305Z,32.90
2019-03-24T13:00:02.208Z,33.10
2019-03-24T13:02:30.439Z,33.20
2019-03-24T13:04:58.607Z,33.40
2019-03-24T13:07:26.613Z,33.20
2019-03-24T13:09:58.039Z,31.10
2019-03-24T13:12:25.881Z,30.50
2019-03-24T13:14:54.875Z,30.60
2019-03-24T13:17:23.017Z,29.60
2019-03-24T13:19:51.137Z,28.90
2019-03-24T13:22:19.007Z,28.80
2019-03-24T13:24:48.992Z,29.70
2019-03-24T13:27:16.875Z,29.60
2019-03-24T13:29:44.756Z,29.00
2019-03-24T13:32:12.810Z,28.60
2019-03-24T13:34:41.975Z,29.00
2019-03-24T13:37:11.964Z,29.60
2019-03-24T13:39:39.923Z,30.10
2019-03-24T13:42:08.038Z,30.40
2019-03-24T13:44:36.435Z,30.20
2019-03-24T13:47:05.763Z,31.60
2019-03-24T13:49:33.678Z,32.00
2019-03-24T13:52:01.604Z,32.00
2019-03-24T13:54:29.559Z,32.10
2019-03-24T13:56:58.526Z,32.60
2019-03-24T13:59:28.062Z,32.60
2019-03-24T14:01:55.962Z,32.30
2019-03-24T14:04:26.751Z,32.10
2019-03-24T14:06:54.899Z,31.10
2019-03-24T14:09:23.154Z,30.50
2019-03-24T14:11:51.104Z,29.90
2019-03-24T14:14:21.730Z,28.90
2019-03-24T14:16:49.904Z,27.50
2019-03-24T14:19:17.942Z,26.90
2019-03-24T14:21:46.102Z,26.70
2019-03-24T14:24:14.134Z,26.10
2019-03-24T14:26:42.062Z,27.90
2019-03-24T14:29:10.078Z,29.70
2019-03-24T14:31:38.118Z,29.80
2019-03-24T14:34:06.118Z,30.00
2019-03-24T14:36:34.257Z,30.40
2019-03-24T14:39:02.348Z,30.10
2019-03-24T14:41:30.260Z,29.00
2019-03-24T14:43:58.081Z,28.60
2019-03-24T14:46:25.992Z,29.20
2019-03-24T14:48:53.782Z,29.20
2019-03-24T14:51:25.149Z,29.40
2019-03-24T14:53:55.984Z,29.50
2019-03-24T14:56:27.444Z,29.80
2019-03-24T14:58:55.603Z,29.60
2019-03-24T15:01:23.752Z,29.60
2019-03-24T15:03:51.896Z,29.80
2019-03-24T15:06:20.466Z,29.80
2019-03-24T15:08:48.395Z,30.00
2019-03-24T15:11:19.567Z,30.50
2019-03-24T15:13:56.433Z,30.30
2019-03-24T15:16:24.887Z,30.10
2019-03-24T15:18:56.004Z,30.40
2019-03-24T15:24:16.044Z,30.40
2019-03-24T15:26:45.432Z,30.70
2019-03-24T15:29:17.160Z,30.80
2019-03-24T15:31:48.956Z,31.60
2019-03-24T15:34:45.756Z,32.00
2019-03-24T15:37:14.641Z,32.00
2019-03-24T15:39:47.398Z,31.90
2019-03-24T15:42:22.144Z,32.10
2019-03-24T15:44:54.071Z,32.80
2019-03-24T15:47:30.230Z,34.10
2019-03-24T15:50:02.696Z,34.80
2019-03-24T15:52:41.213Z,35.30
2019-03-24T15:55:23.772Z,36.00
2019-03-24T15:57:55.773Z,36.20
2019-03-24T16:01:13.818Z,36.10
2019-03-24T16:06:56.031Z,35.10
2019-03-24T16:09:46.484Z,35.70
2019-03-24T16:15:07.413Z,36.60
2019-03-24T16:17:35.286Z,36.90
2019-03-24T16:20:05.722Z,37.30
2019-03-24T16:22:33.593Z,37.70
2019-03-24T16:25:01.535Z,37.80
2019-03-24T16:27:29.511Z,38.00
2019-03-24T16:29:58.718Z,37.90
2019-03-24T16:32:29.662Z,38.00
2019-03-24T16:35:03.859Z,38.20
2019-03-24T16:37:27.726Z,38.60
2019-03-24T16:39:55.971Z,39.00
2019-03-24T16:57:34.694Z,40.60
2019-03-24T17:00:06.132Z,39.80
2019-03-24T17:02:34.055Z,40.00
2019-03-24T17:05:15.241Z,39.90
2019-03-24T17:07:50.965Z,40.00
2019-03-24T17:10:21.410Z,40.40
2019-03-24T17:12:54.923Z,40.50
2019-03-24T17:15:25.686Z,40.40
2019-03-24T17:17:53.787Z,40.50
2019-03-24T17:20:36.871Z,40.70
2019-03-24T17:23:09.732Z,40.90
2019-03-24T17:25:45.968Z,41.10
2019-03-24T17:31:11.167Z,40.80
2019-03-24T17:33:39.037Z,40.90
2019-03-24T17:36:09.727Z,40.70
2019-03-24T17:39:02.122Z,40.80
2019-03-24T17:41:25.960Z,40.90
2019-03-24T17:44:03.448Z,40.90
2019-03-24T17:46:29.542Z,40.90
2019-03-24T17:48:57.575Z,40.90
2019-03-24T17:51:28.518Z,40.90
2019-03-24T17:53:58.869Z,40.80
2019-03-24T17:56:26.752Z,40.60
2019-03-24T17:58:55.117Z,40.40
2019-03-24T18:01:27.092Z,40.30
2019-03-24T18:03:54.931Z,40.40
2019-03-24T18:06:28.461Z,40.10
2019-03-24T18:09:01.963Z,40.10
2019-03-24T18:11:33.261Z,40.40
2019-03-24T18:14:05.172Z,40.60
2019-03-24T18:16:33.252Z,41.00
2019-03-24T18:19:10.295Z,41.00
2019-03-24T18:21:52.493Z,41.40
2019-03-24T18:24:38.632Z,41.50
2019-03-24T18:27:21.735Z,41.90
2019-03-24T18:29:49.409Z,42.00
2019-03-24T18:32:29.970Z,42.20
2019-03-24T18:38:03.903Z,42.50
2019-03-24T18:40:35.840Z,42.60
2019-03-24T18:43:05.816Z,42.70
2019-03-24T18:45:35.038Z,42.60
2019-03-24T18:48:03.195Z,42.60
2019-03-24T18:50:31.082Z,42.90
2019-03-24T18:52:58.927Z,42.90
2019-03-24T18:55:26.810Z,43.10
2019-03-24T18:57:54.751Z,43.20
2019-03-24T19:00:22.689Z,43.00
2019-03-24T19:02:50.657Z,43.40
2019-03-24T19:05:22.850Z,43.60
2019-03-24T19:07:48.004Z,43.50
2019-03-24T19:10:15.842Z,43.60
2019-03-24T19:12:43.636Z,43.60
2019-03-24T19:15:12.291Z,43.50
2019-03-24T19:17:40.119Z,43.80
2019-03-24T19:20:10.862Z,44.20
2019-03-24T19:22:59.641Z,44.20
2019-03-24T19:26:00.490Z,44.40
2019-03-24T19:28:18.410Z,44.80
2019-03-24T19:30:46.590Z,45.20
2019-03-24T19:33:17.945Z,45.30
2019-03-24T19:35:47.148Z,45.70
2019-03-24T19:38:15.084Z,45.90
2019-03-24T19:40:42.903Z,46.20
2019-03-24T19:43:10.746Z,46.10
2019-03-24T19:45:40.321Z,46.30
2019-03-24T19:48:08.266Z,46.40
2019-03-24T19:50:36.469Z,46.70
2019-03-24T19:53:04.382Z,46.50
2019-03-24T19:55:32.345Z,46.60
2019-03-24T19:58:00.188Z,46.40
2019-03-24T20:00:28.048Z,47.10
2019-03-24T20:02:55.992Z,46.90
2019-03-24T20:05:23.876Z,46.60
2019-03-24T20:07:51.671Z,46.80
2019-03-24T20:10:19.502Z,46.40
2019-03-24T20:12:47.389Z,46.60
2019-03-24T20:15:15.520Z,46.50
2019-03-24T20:17:43.485Z,46.60
2019-03-24T20:20:11.394Z,46.60
2019-03-24T20:22:39.217Z,46.70
2019-03-24T20:25:07.176Z,46.90
2019-03-24T20:27:35.025Z,47.00
2019-03-24T20:30:03.499Z,47.30
2019-03-24T20:32:31.477Z,47.50
2019-03-24T20:34:59.319Z,47.70
2019-03-24T20:37:27.267Z,48.00
2019-03-24T20:39:55.165Z,48.30
2019-03-24T20:42:23.017Z,48.60
2019-03-24T20:44:50.879Z,48.70
2019-03-24T20:47:18.818Z,49.00
2019-03-24T20:49:46.890Z,49.30
2019-03-24T20:52:15.129Z,49.40
2019-03-24T20:54:43.241Z,49.90
2019-03-24T20:57:11.324Z,50.10
2019-03-24T20:59:39.421Z,50.40
2019-03-24T21:02:07.481Z,50.70
2019-03-24T21:04:35.572Z,51.00
2019-03-24T21:07:03.691Z,51.30
2019-03-24T21:09:31.686Z,51.50
2019-03-24T21:11:59.649Z,51.60
2019-03-24T21:14:27.458Z,51.90
2019-03-24T21:16:55.508Z,52.10
2019-03-24T21:19:23.425Z,52.20
2019-03-24T21:21:51.302Z,52.30
2019-03-24T21:24:19.451Z,52.70
2019-03-24T21:26:48.172Z,52.80
2019-03-24T21:29:18.301Z,53.00
2019-03-24T21:31:46.479Z,53.30
2019-03-24T21:34:14.347Z,53.30
2019-03-24T21:36:42.302Z,53.40
2019-03-24T21:39:10.200Z,53.70
2019-03-24T21:41:38.313Z,53.70
2019-03-24T21:44:06.121Z,53.80
2019-03-24T21:46:34.019Z,53.90
2019-03-24T21:49:01.811Z,54.20
2019-03-24T21:51:29.739Z,54.70
2019-03-24T21:53:57.520Z,54.50
2019-03-24T21:56:25.545Z,54.70
2019-03-24T21:58:53.325Z,55.40
2019-03-24T22:01:21.197Z,54.80
2019-03-24T22:03:48.994Z,54.90
2019-03-24T22:06:17.564Z,54.90
2019-03-24T22:08:45.366Z,54.80
2019-03-24T22:11:16.300Z,54.90
2019-03-24T22:13:51.374Z,54.80
2019-03-24T22:16:17.146Z,54.90
2019-03-24T22:18:46.679Z,54.90
2019-03-24T22:21:15.826Z,55.00
2019-03-24T22:23:51.930Z,55.20
2019-03-24T22:26:13.682Z,55.40
2019-03-24T22:28:41.813Z,55.50
2019-03-24T22:31:09.929Z,55.70
2019-03-24T22:33:38.148Z,56.10
2019-03-24T22:36:06.075Z,56.50
2019-03-24T22:38:36.279Z,56.90
2019-03-24T22:41:04.145Z,57.30
2019-03-24T22:43:32.167Z,57.70
2019-03-24T22:46:01.503Z,58.00
2019-03-24T22:48:29.483Z,58.10
2019-03-24T22:50:57.275Z,58.30
2019-03-24T22:53:25.185Z,58.70
2019-03-24T22:55:53.066Z,59.00
2019-03-24T22:58:22.384Z,59.10
2019-03-24T23:00:51.654Z,59.30
2019-03-24T23:03:19.630Z,59.80
2019-03-24T23:05:47.591Z,60.10
2019-03-24T23:08:15.424Z,60.20
2019-03-24T23:10:43.185Z,60.10
2019-03-24T23:13:11.005Z,60.40
2019-03-24T23:15:38.945Z,60.50
2019-03-24T23:18:07.074Z,61.70
2019-03-24T23:20:34.960Z,61.20
2019-03-24T23:23:03.060Z,61.60
2019-03-24T23:25:31.063Z,61.90
2019-03-24T23:27:59.025Z,61.90
2019-03-24T23:30:27.162Z,61.80
2019-03-24T23:32:55.181Z,61.60
2019-03-24T23:35:23.207Z,61.50
2019-03-24T23:37:51.259Z,61.70
2019-03-24T23:40:20.639Z,61.50
2019-03-24T23:42:48.488Z,61.40
2019-03-24T23:45:16.391Z,61.40
2019-03-24T23:47:44.886Z,61.40
2019-03-24T23:50:12.946Z,61.20
2019-03-24T23:52:42.741Z,61.00
2019-03-24T23:55:11.128Z,61.00
2019-03-24T23:57:38.954Z,60.80
